LFST

Strasbourg Airport

Airport
ICAO code
LFST
IATA Code
SXB
Summary
ICAO Region
EUR
ICAO Territory
Location

, Alsace

Serving
Strasbourg
Elevation
505 ft
Coordinates
48° 32' 18" N , 7° 37' 42" E
Metar
LFST 150200Z AUTO 15005KT 110V190 9000 -RA SCT032/// SCT070/// OVC088/// ///TCU 15/14 Q1007 TEMPO 21015G25KT 2000 SHRA FEW030CB

Runways

Designator Length Width Surface Rops
5/23 2400 45 ASP Yes/Yes

Airport map

Aerial View

SKYbrary Partners:

Safety knowledge contributed by: